sensor_id;sensor_type;location;lat;lon;timestamp;P1;durP1;ratioP1;P2;durP2;ratioP2
21046;SDS011;10682;50.874;3.656;2023-02-04T00:01:00;19.53;;;8.77;;
21046;SDS011;10682;50.874;3.656;2023-02-04T00:03:27;21.43;;;8.77;;
21046;SDS011;10682;50.874;3.656;2023-02-04T00:05:54;19.30;;;8.80;;
21046;SDS011;10682;50.874;3.656;2023-02-04T00:08:21;23.90;;;8.90;;
21046;SDS011;10682;50.874;3.656;2023-02-04T00:10:49;16.73;;;8.30;;
21046;SDS011;10682;50.874;3.656;2023-02-04T00:13:16;26.80;;;9.20;;
21046;SDS011;10682;50.874;3.656;2023-02-04T00:15:43;20.57;;;7.90;;
21046;SDS011;10682;50.874;3.656;2023-02-04T00:18:10;19.07;;;8.47;;
21046;SDS011;10682;50.874;3.656;2023-02-04T00:20:37;24.07;;;8.80;;
21046;SDS011;10682;50.874;3.656;2023-02-04T00:23:04;16.80;;;8.33;;
21046;SDS011;10682;50.874;3.656;2023-02-04T00:25:31;20.40;;;7.97;;
21046;SDS011;10682;50.874;3.656;2023-02-04T00:27:58;18.27;;;8.50;;
21046;SDS011;10682;50.874;3.656;2023-02-04T00:30:25;20.47;;;8.63;;
21046;SDS011;10682;50.874;3.656;2023-02-04T00:32:52;20.73;;;8.23;;
21046;SDS011;10682;50.874;3.656;2023-02-04T00:35:20;20.57;;;8.77;;
21046;SDS011;10682;50.874;3.656;2023-02-04T00:37:47;21.67;;;8.40;;
21046;SDS011;10682;50.874;3.656;2023-02-04T00:40:15;24.57;;;9.50;;
21046;SDS011;10682;50.874;3.656;2023-02-04T00:42:42;22.70;;;8.83;;
21046;SDS011;10682;50.874;3.656;2023-02-04T00:45:09;17.83;;;8.33;;
21046;SDS011;10682;50.874;3.656;2023-02-04T00:47:37;22.73;;;8.87;;
21046;SDS011;10682;50.874;3.656;2023-02-04T00:50:05;17.80;;;7.97;;
21046;SDS011;10682;50.874;3.656;2023-02-04T00:52:32;27.00;;;9.70;;
21046;SDS011;10682;50.874;3.656;2023-02-04T00:54:59;20.50;;;7.83;;
21046;SDS011;10682;50.874;3.656;2023-02-04T00:57:27;23.73;;;7.93;;
21046;SDS011;10682;50.874;3.656;2023-02-04T00:59:54;19.47;;;7.90;;
21046;SDS011;10682;50.874;3.656;2023-02-04T01:02:21;15.70;;;7.43;;
21046;SDS011;10682;50.874;3.656;2023-02-04T01:04:48;17.47;;;7.17;;
21046;SDS011;10682;50.874;3.656;2023-02-04T01:07:15;15.30;;;7.10;;
21046;SDS011;10682;50.874;3.656;2023-02-04T01:09:43;19.70;;;7.33;;
21046;SDS011;10682;50.874;3.656;2023-02-04T01:12:10;16.97;;;7.23;;
21046;SDS011;10682;50.874;3.656;2023-02-04T01:14:37;13.67;;;6.47;;
21046;SDS011;10682;50.874;3.656;2023-02-04T01:17:04;14.93;;;7.07;;
21046;SDS011;10682;50.874;3.656;2023-02-04T01:19:31;16.13;;;6.40;;
21046;SDS011;10682;50.874;3.656;2023-02-04T01:21:58;15.30;;;7.00;;
21046;SDS011;10682;50.874;3.656;2023-02-04T01:24:25;17.23;;;6.87;;
21046;SDS011;10682;50.874;3.656;2023-02-04T01:26:52;16.83;;;7.50;;
21046;SDS011;10682;50.874;3.656;2023-02-04T01:29:19;17.10;;;7.20;;
21046;SDS011;10682;50.874;3.656;2023-02-04T01:31:46;16.93;;;6.80;;
21046;SDS011;10682;50.874;3.656;2023-02-04T01:34:13;14.63;;;7.00;;
21046;SDS011;10682;50.874;3.656;2023-02-04T01:36:40;12.63;;;6.77;;
21046;SDS011;10682;50.874;3.656;2023-02-04T01:39:07;19.83;;;7.10;;
21046;SDS011;10682;50.874;3.656;2023-02-04T01:41:34;15.83;;;7.27;;
21046;SDS011;10682;50.874;3.656;2023-02-04T01:44:01;13.47;;;6.53;;
21046;SDS011;10682;50.874;3.656;2023-02-04T01:46:29;18.67;;;7.50;;
21046;SDS011;10682;50.874;3.656;2023-02-04T01:48:59;14.80;;;6.77;;
21046;SDS011;10682;50.874;3.656;2023-02-04T01:51:27;15.63;;;6.57;;
21046;SDS011;10682;50.874;3.656;2023-02-04T01:53:57;18.50;;;6.77;;
21046;SDS011;10682;50.874;3.656;2023-02-04T01:56:25;14.40;;;6.60;;
21046;SDS011;10682;50.874;3.656;2023-02-04T01:58:55;16.13;;;6.20;;
21046;SDS011;10682;50.874;3.656;2023-02-04T02:01:34;15.37;;;6.60;;
21046;SDS011;10682;50.874;3.656;2023-02-04T02:04:08;12.00;;;6.10;;
21046;SDS011;10682;50.874;3.656;2023-02-04T02:06:41;15.67;;;6.17;;
21046;SDS011;10682;50.874;3.656;2023-02-04T02:09:19;12.87;;;5.40;;
21046;SDS011;10682;50.874;3.656;2023-02-04T02:11:46;15.93;;;5.63;;
21046;SDS011;10682;50.874;3.656;2023-02-04T02:14:13;10.57;;;5.00;;
21046;SDS011;10682;50.874;3.656;2023-02-04T02:16:41;12.80;;;5.43;;
21046;SDS011;10682;50.874;3.656;2023-02-04T02:19:09;17.00;;;5.97;;
21046;SDS011;10682;50.874;3.656;2023-02-04T02:21:43;15.40;;;5.80;;
21046;SDS011;10682;50.874;3.656;2023-02-04T02:24:27;13.83;;;6.07;;
21046;SDS011;10682;50.874;3.656;2023-02-04T02:26:55;14.97;;;6.13;;
21046;SDS011;10682;50.874;3.656;2023-02-04T02:29:26;19.80;;;6.63;;
21046;SDS011;10682;50.874;3.656;2023-02-04T02:31:54;13.30;;;5.77;;
21046;SDS011;10682;50.874;3.656;2023-02-04T02:34:23;12.33;;;6.57;;
21046;SDS011;10682;50.874;3.656;2023-02-04T02:36:52;17.93;;;6.70;;
21046;SDS011;10682;50.874;3.656;2023-02-04T02:42:04;17.10;;;7.13;;
21046;SDS011;10682;50.874;3.656;2023-02-04T02:44:31;18.87;;;7.03;;
21046;SDS011;10682;50.874;3.656;2023-02-04T02:46:59;17.53;;;7.50;;
21046;SDS011;10682;50.874;3.656;2023-02-04T02:49:27;18.83;;;7.87;;
21046;SDS011;10682;50.874;3.656;2023-02-04T02:51:57;17.43;;;7.70;;
21046;SDS011;10682;50.874;3.656;2023-02-04T02:54:25;21.43;;;8.20;;
21046;SDS011;10682;50.874;3.656;2023-02-04T02:56:57;15.03;;;8.17;;
21046;SDS011;10682;50.874;3.656;2023-02-04T02:59:25;15.43;;;8.40;;
21046;SDS011;10682;50.874;3.656;2023-02-04T03:01:56;21.67;;;8.00;;
21046;SDS011;10682;50.874;3.656;2023-02-04T03:04:28;14.53;;;8.27;;
21046;SDS011;10682;50.874;3.656;2023-02-04T03:06:59;18.97;;;8.07;;
21046;SDS011;10682;50.874;3.656;2023-02-04T03:09:26;14.83;;;7.67;;
21046;SDS011;10682;50.874;3.656;2023-02-04T03:11:54;16.43;;;8.57;;
21046;SDS011;10682;50.874;3.656;2023-02-04T03:14:21;16.83;;;8.70;;
21046;SDS011;10682;50.874;3.656;2023-02-04T03:16:51;17.63;;;8.67;;
21046;SDS011;10682;50.874;3.656;2023-02-04T03:19:19;21.00;;;9.40;;
21046;SDS011;10682;50.874;3.656;2023-02-04T03:21:51;18.93;;;9.03;;
21046;SDS011;10682;50.874;3.656;2023-02-04T03:24:20;19.07;;;9.03;;
21046;SDS011;10682;50.874;3.656;2023-02-04T03:26:48;23.07;;;9.83;;
21046;SDS011;10682;50.874;3.656;2023-02-04T03:29:15;26.03;;;9.53;;
21046;SDS011;10682;50.874;3.656;2023-02-04T03:31:42;17.03;;;9.30;;
21046;SDS011;10682;50.874;3.656;2023-02-04T03:34:10;20.07;;;9.10;;
21046;SDS011;10682;50.874;3.656;2023-02-04T03:36:36;21.47;;;9.77;;
21046;SDS011;10682;50.874;3.656;2023-02-04T03:39:04;24.43;;;10.03;;
21046;SDS011;10682;50.874;3.656;2023-02-04T03:41:31;19.73;;;10.20;;
21046;SDS011;10682;50.874;3.656;2023-02-04T03:43:58;20.53;;;10.17;;
21046;SDS011;10682;50.874;3.656;2023-02-04T03:46:25;21.57;;;10.57;;
21046;SDS011;10682;50.874;3.656;2023-02-04T03:48:53;22.83;;;10.30;;
21046;SDS011;10682;50.874;3.656;2023-02-04T03:51:21;23.03;;;10.70;;
21046;SDS011;10682;50.874;3.656;2023-02-04T03:53:48;19.03;;;9.93;;
21046;SDS011;10682;50.874;3.656;2023-02-04T03:56:16;17.07;;;10.30;;
21046;SDS011;10682;50.874;3.656;2023-02-04T03:58:46;18.93;;;10.83;;
21046;SDS011;10682;50.874;3.656;2023-02-04T04:01:14;16.63;;;11.03;;
21046;SDS011;10682;50.874;3.656;2023-02-04T04:03:42;21.23;;;10.73;;
21046;SDS011;10682;50.874;3.656;2023-02-04T04:06:09;21.40;;;11.37;;
21046;SDS011;10682;50.874;3.656;2023-02-04T04:08:36;19.97;;;10.90;;
21046;SDS011;10682;50.874;3.656;2023-02-04T04:11:05;19.10;;;10.90;;
21046;SDS011;10682;50.874;3.656;2023-02-04T04:13:32;21.13;;;11.70;;
21046;SDS011;10682;50.874;3.656;2023-02-04T04:15:59;18.37;;;10.90;;
21046;SDS011;10682;50.874;3.656;2023-02-04T04:18:26;19.07;;;11.10;;
21046;SDS011;10682;50.874;3.656;2023-02-04T04:20:53;21.20;;;11.37;;
21046;SDS011;10682;50.874;3.656;2023-02-04T04:23:20;21.60;;;11.37;;
21046;SDS011;10682;50.874;3.656;2023-02-04T04:25:47;20.87;;;11.77;;
21046;SDS011;10682;50.874;3.656;2023-02-04T04:28:14;21.90;;;11.97;;
21046;SDS011;10682;50.874;3.656;2023-02-04T04:30:41;19.57;;;11.43;;
21046;SDS011;10682;50.874;3.656;2023-02-04T04:33:08;20.97;;;11.77;;
21046;SDS011;10682;50.874;3.656;2023-02-04T04:35:35;20.03;;;12.00;;
21046;SDS011;10682;50.874;3.656;2023-02-04T04:38:02;20.10;;;12.70;;
21046;SDS011;10682;50.874;3.656;2023-02-04T04:40:29;21.53;;;12.30;;
21046;SDS011;10682;50.874;3.656;2023-02-04T04:42:57;22.73;;;12.53;;
21046;SDS011;10682;50.874;3.656;2023-02-04T04:45:24;20.63;;;12.87;;
21046;SDS011;10682;50.874;3.656;2023-02-04T04:47:51;20.23;;;12.57;;
21046;SDS011;10682;50.874;3.656;2023-02-04T04:50:18;23.53;;;12.63;;
21046;SDS011;10682;50.874;3.656;2023-02-04T04:52:45;25.03;;;14.17;;
21046;SDS011;10682;50.874;3.656;2023-02-04T04:55:12;20.63;;;13.03;;
21046;SDS011;10682;50.874;3.656;2023-02-04T04:57:39;26.63;;;13.80;;
21046;SDS011;10682;50.874;3.656;2023-02-04T05:00:07;31.83;;;14.67;;
21046;SDS011;10682;50.874;3.656;2023-02-04T05:02:35;27.00;;;14.10;;
21046;SDS011;10682;50.874;3.656;2023-02-04T05:05:02;26.73;;;14.77;;
21046;SDS011;10682;50.874;3.656;2023-02-04T05:07:29;30.60;;;15.13;;
21046;SDS011;10682;50.874;3.656;2023-02-04T05:09:56;32.57;;;14.20;;
21046;SDS011;10682;50.874;3.656;2023-02-04T05:12:23;28.73;;;14.87;;
21046;SDS011;10682;50.874;3.656;2023-02-04T05:14:50;27.30;;;14.83;;
21046;SDS011;10682;50.874;3.656;2023-02-04T05:17:17;31.67;;;15.00;;
21046;SDS011;10682;50.874;3.656;2023-02-04T05:19:44;31.63;;;15.73;;
21046;SDS011;10682;50.874;3.656;2023-02-04T05:22:11;30.30;;;16.50;;
21046;SDS011;10682;50.874;3.656;2023-02-04T05:24:39;26.97;;;15.53;;
21046;SDS011;10682;50.874;3.656;2023-02-04T05:27:06;32.47;;;16.00;;
21046;SDS011;10682;50.874;3.656;2023-02-04T05:29:33;28.20;;;15.13;;
21046;SDS011;10682;50.874;3.656;2023-02-04T05:32:00;26.00;;;15.80;;
21046;SDS011;10682;50.874;3.656;2023-02-04T05:34:27;29.80;;;16.60;;
21046;SDS011;10682;50.874;3.656;2023-02-04T05:36:54;36.27;;;16.07;;
21046;SDS011;10682;50.874;3.656;2023-02-04T05:39:24;30.40;;;15.93;;
21046;SDS011;10682;50.874;3.656;2023-02-04T05:41:54;30.37;;;16.50;;
21046;SDS011;10682;50.874;3.656;2023-02-04T05:44:21;31.47;;;16.20;;
21046;SDS011;10682;50.874;3.656;2023-02-04T05:46:48;30.87;;;16.03;;
21046;SDS011;10682;50.874;3.656;2023-02-04T05:49:15;39.37;;;16.27;;
21046;SDS011;10682;50.874;3.656;2023-02-04T05:51:42;33.27;;;16.23;;
21046;SDS011;10682;50.874;3.656;2023-02-04T05:54:09;31.90;;;15.27;;
21046;SDS011;10682;50.874;3.656;2023-02-04T05:56:36;31.73;;;15.80;;
21046;SDS011;10682;50.874;3.656;2023-02-04T05:59:07;41.70;;;18.47;;
21046;SDS011;10682;50.874;3.656;2023-02-04T06:01:34;39.73;;;20.17;;
21046;SDS011;10682;50.874;3.656;2023-02-04T06:04:01;38.63;;;18.80;;
21046;SDS011;10682;50.874;3.656;2023-02-04T06:06:28;38.30;;;17.23;;
21046;SDS011;10682;50.874;3.656;2023-02-04T06:08:55;31.53;;;16.07;;
21046;SDS011;10682;50.874;3.656;2023-02-04T06:11:22;32.23;;;15.20;;
21046;SDS011;10682;50.874;3.656;2023-02-04T06:13:49;32.23;;;15.17;;
21046;SDS011;10682;50.874;3.656;2023-02-04T06:16:19;30.53;;;13.77;;
21046;SDS011;10682;50.874;3.656;2023-02-04T06:18:47;32.83;;;14.40;;
21046;SDS011;10682;50.874;3.656;2023-02-04T06:21:14;30.70;;;14.13;;
21046;SDS011;10682;50.874;3.656;2023-02-04T06:23:41;30.13;;;13.83;;
21046;SDS011;10682;50.874;3.656;2023-02-04T06:26:10;34.30;;;13.77;;
21046;SDS011;10682;50.874;3.656;2023-02-04T06:28:38;36.20;;;13.37;;
21046;SDS011;10682;50.874;3.656;2023-02-04T06:31:05;31.87;;;12.67;;
21046;SDS011;10682;50.874;3.656;2023-02-04T06:33:35;35.17;;;13.70;;
21046;SDS011;10682;50.874;3.656;2023-02-04T06:36:03;32.97;;;13.33;;
21046;SDS011;10682;50.874;3.656;2023-02-04T06:38:30;28.47;;;11.90;;
21046;SDS011;10682;50.874;3.656;2023-02-04T06:40:58;31.50;;;12.47;;
21046;SDS011;10682;50.874;3.656;2023-02-04T06:43:25;30.03;;;11.77;;
21046;SDS011;10682;50.874;3.656;2023-02-04T06:45:53;28.97;;;11.83;;
21046;SDS011;10682;50.874;3.656;2023-02-04T06:48:20;32.40;;;12.07;;
21046;SDS011;10682;50.874;3.656;2023-02-04T06:50:47;25.37;;;11.67;;
21046;SDS011;10682;50.874;3.656;2023-02-04T06:53:14;28.27;;;11.40;;
21046;SDS011;10682;50.874;3.656;2023-02-04T06:55:41;22.17;;;11.27;;
21046;SDS011;10682;50.874;3.656;2023-02-04T06:58:08;23.97;;;11.43;;
21046;SDS011;10682;50.874;3.656;2023-02-04T07:00:35;28.93;;;12.23;;
21046;SDS011;10682;50.874;3.656;2023-02-04T07:03:02;29.23;;;11.70;;
21046;SDS011;10682;50.874;3.656;2023-02-04T07:05:29;26.63;;;11.20;;
21046;SDS011;10682;50.874;3.656;2023-02-04T07:07:57;28.07;;;12.17;;
21046;SDS011;10682;50.874;3.656;2023-02-04T07:10:24;24.37;;;11.03;;
21046;SDS011;10682;50.874;3.656;2023-02-04T07:12:51;25.27;;;11.37;;
21046;SDS011;10682;50.874;3.656;2023-02-04T07:15:18;28.43;;;11.20;;
21046;SDS011;10682;50.874;3.656;2023-02-04T07:17:45;23.93;;;11.30;;
21046;SDS011;10682;50.874;3.656;2023-02-04T07:20:12;26.67;;;10.60;;
21046;SDS011;10682;50.874;3.656;2023-02-04T07:22:39;26.83;;;11.13;;
21046;SDS011;10682;50.874;3.656;2023-02-04T07:25:08;22.73;;;10.70;;
21046;SDS011;10682;50.874;3.656;2023-02-04T07:27:35;23.17;;;10.90;;
21046;SDS011;10682;50.874;3.656;2023-02-04T07:30:02;24.67;;;10.40;;
21046;SDS011;10682;50.874;3.656;2023-02-04T07:32:29;26.33;;;11.03;;
21046;SDS011;10682;50.874;3.656;2023-02-04T07:34:58;19.93;;;10.30;;
21046;SDS011;10682;50.874;3.656;2023-02-04T07:37:27;17.27;;;9.73;;
21046;SDS011;10682;50.874;3.656;2023-02-04T07:39:54;22.63;;;11.07;;
21046;SDS011;10682;50.874;3.656;2023-02-04T07:42:21;24.90;;;10.67;;
21046;SDS011;10682;50.874;3.656;2023-02-04T07:44:48;34.80;;;11.97;;
21046;SDS011;10682;50.874;3.656;2023-02-04T07:47:14;25.03;;;11.83;;
21046;SDS011;10682;50.874;3.656;2023-02-04T07:49:41;22.03;;;10.43;;
21046;SDS011;10682;50.874;3.656;2023-02-04T07:52:08;24.83;;;11.20;;
21046;SDS011;10682;50.874;3.656;2023-02-04T07:54:35;27.20;;;11.20;;
21046;SDS011;10682;50.874;3.656;2023-02-04T07:57:02;21.23;;;11.00;;
21046;SDS011;10682;50.874;3.656;2023-02-04T07:59:29;29.17;;;11.97;;
21046;SDS011;10682;50.874;3.656;2023-02-04T08:01:56;25.17;;;12.13;;
21046;SDS011;10682;50.874;3.656;2023-02-04T08:04:27;29.33;;;12.37;;
21046;SDS011;10682;50.874;3.656;2023-02-04T08:06:54;26.43;;;12.00;;
21046;SDS011;10682;50.874;3.656;2023-02-04T08:09:21;29.63;;;12.30;;
21046;SDS011;10682;50.874;3.656;2023-02-04T08:11:49;21.47;;;11.20;;
21046;SDS011;10682;50.874;3.656;2023-02-04T08:14:16;22.97;;;10.97;;
21046;SDS011;10682;50.874;3.656;2023-02-04T08:16:43;27.33;;;12.33;;
21046;SDS011;10682;50.874;3.656;2023-02-04T08:19:10;22.77;;;11.17;;
21046;SDS011;10682;50.874;3.656;2023-02-04T08:21:37;28.07;;;10.50;;
21046;SDS011;10682;50.874;3.656;2023-02-04T08:24:04;26.67;;;10.83;;
21046;SDS011;10682;50.874;3.656;2023-02-04T08:26:31;23.07;;;9.93;;
21046;SDS011;10682;50.874;3.656;2023-02-04T08:28:58;24.07;;;10.70;;
21046;SDS011;10682;50.874;3.656;2023-02-04T08:31:26;25.33;;;9.93;;
21046;SDS011;10682;50.874;3.656;2023-02-04T08:33:53;23.37;;;9.57;;
21046;SDS011;10682;50.874;3.656;2023-02-04T08:36:20;26.40;;;9.53;;
21046;SDS011;10682;50.874;3.656;2023-02-04T08:38:47;21.10;;;9.57;;
21046;SDS011;10682;50.874;3.656;2023-02-04T08:41:14;21.43;;;9.47;;
21046;SDS011;10682;50.874;3.656;2023-02-04T08:43:41;20.47;;;9.33;;
21046;SDS011;10682;50.874;3.656;2023-02-04T08:46:08;20.33;;;9.87;;
21046;SDS011;10682;50.874;3.656;2023-02-04T08:48:35;26.50;;;10.63;;
21046;SDS011;10682;50.874;3.656;2023-02-04T08:51:03;19.00;;;9.40;;
21046;SDS011;10682;50.874;3.656;2023-02-04T08:53:30;21.83;;;9.47;;
21046;SDS011;10682;50.874;3.656;2023-02-04T08:55:57;20.43;;;9.83;;
21046;SDS011;10682;50.874;3.656;2023-02-04T08:58:24;21.47;;;9.37;;
21046;SDS011;10682;50.874;3.656;2023-02-04T09:00:51;30.60;;;10.80;;
21046;SDS011;10682;50.874;3.656;2023-02-04T09:03:18;24.07;;;8.83;;
21046;SDS011;10682;50.874;3.656;2023-02-04T09:05:45;22.50;;;8.63;;
21046;SDS011;10682;50.874;3.656;2023-02-04T09:08:12;26.17;;;10.43;;
21046;SDS011;10682;50.874;3.656;2023-02-04T09:10:40;23.70;;;8.93;;
21046;SDS011;10682;50.874;3.656;2023-02-04T09:13:08;25.57;;;9.13;;
21046;SDS011;10682;50.874;3.656;2023-02-04T09:15:36;19.23;;;8.63;;
21046;SDS011;10682;50.874;3.656;2023-02-04T09:18:03;26.27;;;8.17;;
21046;SDS011;10682;50.874;3.656;2023-02-04T09:20:39;31.13;;;8.63;;
21046;SDS011;10682;50.874;3.656;2023-02-04T09:23:06;29.70;;;8.47;;
21046;SDS011;10682;50.874;3.656;2023-02-04T09:25:35;23.70;;;7.60;;
21046;SDS011;10682;50.874;3.656;2023-02-04T09:28:04;30.50;;;7.97;;
21046;SDS011;10682;50.874;3.656;2023-02-04T09:30:32;18.30;;;7.73;;
21046;SDS011;10682;50.874;3.656;2023-02-04T09:32:59;29.77;;;7.90;;
21046;SDS011;10682;50.874;3.656;2023-02-04T09:35:27;21.53;;;6.83;;
21046;SDS011;10682;50.874;3.656;2023-02-04T09:37:54;20.63;;;7.10;;
21046;SDS011;10682;50.874;3.656;2023-02-04T09:40:21;15.70;;;6.00;;
21046;SDS011;10682;50.874;3.656;2023-02-04T09:42:49;18.73;;;5.57;;
21046;SDS011;10682;50.874;3.656;2023-02-04T09:45:21;12.57;;;6.10;;
21046;SDS011;10682;50.874;3.656;2023-02-04T09:47:55;17.03;;;5.80;;
21046;SDS011;10682;50.874;3.656;2023-02-04T09:50:25;16.97;;;6.20;;
21046;SDS011;10682;50.874;3.656;2023-02-04T09:52:55;24.40;;;6.23;;
21046;SDS011;10682;50.874;3.656;2023-02-04T09:55:37;17.03;;;5.13;;
21046;SDS011;10682;50.874;3.656;2023-02-04T10:00:47;16.97;;;5.20;;
21046;SDS011;10682;50.874;3.656;2023-02-04T10:03:40;20.20;;;5.77;;
21046;SDS011;10682;50.874;3.656;2023-02-04T10:06:12;17.90;;;5.67;;
21046;SDS011;10682;50.874;3.656;2023-02-04T10:08:49;12.97;;;4.80;;
21046;SDS011;10682;50.874;3.656;2023-02-04T10:11:17;12.80;;;4.57;;
21046;SDS011;10682;50.874;3.656;2023-02-04T10:13:48;15.23;;;4.73;;
21046;SDS011;10682;50.874;3.656;2023-02-04T10:16:24;14.80;;;4.90;;
21046;SDS011;10682;50.874;3.656;2023-02-04T10:18:56;14.90;;;4.87;;
21046;SDS011;10682;50.874;3.656;2023-02-04T10:21:29;15.90;;;5.37;;
21046;SDS011;10682;50.874;3.656;2023-02-04T10:23:59;12.03;;;4.93;;
21046;SDS011;10682;50.874;3.656;2023-02-04T10:26:29;14.60;;;5.27;;
21046;SDS011;10682;50.874;3.656;2023-02-04T10:28:58;15.87;;;5.60;;
21046;SDS011;10682;50.874;3.656;2023-02-04T10:36:49;8.90;;;4.80;;
21046;SDS011;10682;50.874;3.656;2023-02-04T10:39:23;11.60;;;4.50;;
21046;SDS011;10682;50.874;3.656;2023-02-04T10:41:55;15.87;;;4.67;;
21046;SDS011;10682;50.874;3.656;2023-02-04T10:44:26;21.73;;;4.67;;
21046;SDS011;10682;50.874;3.656;2023-02-04T10:47:02;16.60;;;4.73;;
21046;SDS011;10682;50.874;3.656;2023-02-04T10:52:21;12.83;;;4.73;;
21046;SDS011;10682;50.874;3.656;2023-02-04T10:54:54;17.23;;;4.77;;
21046;SDS011;10682;50.874;3.656;2023-02-04T10:57:23;11.20;;;4.27;;
21046;SDS011;10682;50.874;3.656;2023-02-04T10:59:56;11.20;;;4.70;;
21046;SDS011;10682;50.874;3.656;2023-02-04T11:05:18;10.73;;;3.73;;
21046;SDS011;10682;50.874;3.656;2023-02-04T11:07:48;15.87;;;4.70;;
21046;SDS011;10682;50.874;3.656;2023-02-04T11:10:17;17.93;;;4.80;;
21046;SDS011;10682;50.874;3.656;2023-02-04T11:20:50;13.40;;;5.07;;
21046;SDS011;10682;50.874;3.656;2023-02-04T11:26:11;13.60;;;4.70;;
21046;SDS011;10682;50.874;3.656;2023-02-04T11:31:26;12.53;;;4.77;;
21046;SDS011;10682;50.874;3.656;2023-02-04T11:39:37;13.63;;;4.60;;
21046;SDS011;10682;50.874;3.656;2023-02-04T11:44:53;11.27;;;4.37;;
21046;SDS011;10682;50.874;3.656;2023-02-04T11:47:25;12.20;;;4.53;;
21046;SDS011;10682;50.874;3.656;2023-02-04T11:50:00;10.90;;;4.53;;
21046;SDS011;10682;50.874;3.656;2023-02-04T11:52:44;10.93;;;4.67;;
21046;SDS011;10682;50.874;3.656;2023-02-04T11:55:11;11.47;;;5.23;;
21046;SDS011;10682;50.874;3.656;2023-02-04T11:57:39;12.37;;;4.50;;
21046;SDS011;10682;50.874;3.656;2023-02-04T12:00:11;13.03;;;4.63;;
21046;SDS011;10682;50.874;3.656;2023-02-04T12:02:45;11.87;;;4.80;;
21046;SDS011;10682;50.874;3.656;2023-02-04T12:05:16;11.57;;;4.60;;
21046;SDS011;10682;50.874;3.656;2023-02-04T12:07:46;11.90;;;5.20;;
21046;SDS011;10682;50.874;3.656;2023-02-04T12:12:47;23.23;;;5.67;;
21046;SDS011;10682;50.874;3.656;2023-02-04T12:15:33;16.33;;;5.73;;
21046;SDS011;10682;50.874;3.656;2023-02-04T12:18:06;18.90;;;5.20;;
21046;SDS011;10682;50.874;3.656;2023-02-04T12:20:35;21.43;;;5.40;;
21046;SDS011;10682;50.874;3.656;2023-02-04T12:23:02;19.00;;;5.50;;
21046;SDS011;10682;50.874;3.656;2023-02-04T12:25:30;13.93;;;4.70;;
21046;SDS011;10682;50.874;3.656;2023-02-04T12:27:57;25.37;;;9.23;;
21046;SDS011;10682;50.874;3.656;2023-02-04T12:30:25;18.50;;;5.50;;
21046;SDS011;10682;50.874;3.656;2023-02-04T12:32:52;15.80;;;5.37;;
21046;SDS011;10682;50.874;3.656;2023-02-04T12:35:19;16.20;;;5.30;;
21046;SDS011;10682;50.874;3.656;2023-02-04T12:37:46;14.80;;;4.97;;
21046;SDS011;10682;50.874;3.656;2023-02-04T12:40:14;12.20;;;4.77;;
21046;SDS011;10682;50.874;3.656;2023-02-04T12:42:46;11.13;;;4.93;;
21046;SDS011;10682;50.874;3.656;2023-02-04T12:45:14;11.17;;;5.30;;
21046;SDS011;10682;50.874;3.656;2023-02-04T12:47:42;14.40;;;5.30;;
21046;SDS011;10682;50.874;3.656;2023-02-04T12:50:11;24.43;;;5.50;;
21046;SDS011;10682;50.874;3.656;2023-02-04T12:52:51;12.80;;;5.17;;
21046;SDS011;10682;50.874;3.656;2023-02-04T12:55:23;15.07;;;4.87;;
21046;SDS011;10682;50.874;3.656;2023-02-04T12:57:53;12.07;;;5.20;;
21046;SDS011;10682;50.874;3.656;2023-02-04T13:00:21;11.17;;;4.93;;
21046;SDS011;10682;50.874;3.656;2023-02-04T13:02:48;12.40;;;5.60;;
21046;SDS011;10682;50.874;3.656;2023-02-04T13:05:16;12.00;;;5.10;;
21046;SDS011;10682;50.874;3.656;2023-02-04T13:07:44;14.30;;;5.53;;
21046;SDS011;10682;50.874;3.656;2023-02-04T13:10:11;14.70;;;5.97;;
21046;SDS011;10682;50.874;3.656;2023-02-04T13:12:39;14.43;;;5.57;;
21046;SDS011;10682;50.874;3.656;2023-02-04T13:15:06;17.60;;;5.77;;
21046;SDS011;10682;50.874;3.656;2023-02-04T13:17:35;13.90;;;4.93;;
21046;SDS011;10682;50.874;3.656;2023-02-04T13:20:02;12.60;;;4.93;;
21046;SDS011;10682;50.874;3.656;2023-02-04T13:22:30;13.07;;;5.30;;
21046;SDS011;10682;50.874;3.656;2023-02-04T13:24:57;14.17;;;5.30;;
21046;SDS011;10682;50.874;3.656;2023-02-04T13:27:24;10.13;;;4.97;;
21046;SDS011;10682;50.874;3.656;2023-02-04T13:29:53;11.90;;;5.10;;
21046;SDS011;10682;50.874;3.656;2023-02-04T13:32:20;10.33;;;4.63;;
21046;SDS011;10682;50.874;3.656;2023-02-04T13:34:47;15.63;;;5.47;;
21046;SDS011;10682;50.874;3.656;2023-02-04T13:37:14;15.23;;;5.73;;
21046;SDS011;10682;50.874;3.656;2023-02-04T13:39:40;14.93;;;5.80;;
21046;SDS011;10682;50.874;3.656;2023-02-04T13:42:07;13.50;;;6.00;;
21046;SDS011;10682;50.874;3.656;2023-02-04T13:44:34;15.33;;;6.07;;
21046;SDS011;10682;50.874;3.656;2023-02-04T13:47:01;18.00;;;6.83;;
21046;SDS011;10682;50.874;3.656;2023-02-04T13:49:28;12.83;;;6.47;;
21046;SDS011;10682;50.874;3.656;2023-02-04T13:51:55;13.27;;;6.40;;
21046;SDS011;10682;50.874;3.656;2023-02-04T13:54:22;12.33;;;6.10;;
21046;SDS011;10682;50.874;3.656;2023-02-04T13:56:50;15.47;;;5.97;;
21046;SDS011;10682;50.874;3.656;2023-02-04T13:59:17;15.07;;;6.17;;
21046;SDS011;10682;50.874;3.656;2023-02-04T14:01:46;19.33;;;6.50;;
21046;SDS011;10682;50.874;3.656;2023-02-04T14:04:13;12.90;;;5.97;;
21046;SDS011;10682;50.874;3.656;2023-02-04T14:06:40;13.17;;;5.80;;
21046;SDS011;10682;50.874;3.656;2023-02-04T14:09:09;12.67;;;5.93;;
21046;SDS011;10682;50.874;3.656;2023-02-04T14:11:39;14.10;;;5.87;;
21046;SDS011;10682;50.874;3.656;2023-02-04T14:14:06;16.40;;;6.40;;
21046;SDS011;10682;50.874;3.656;2023-02-04T14:16:34;14.20;;;5.87;;
21046;SDS011;10682;50.874;3.656;2023-02-04T14:19:03;19.57;;;6.43;;
21046;SDS011;10682;50.874;3.656;2023-02-04T14:21:31;18.03;;;7.23;;
21046;SDS011;10682;50.874;3.656;2023-02-04T14:23:58;18.53;;;7.57;;
21046;SDS011;10682;50.874;3.656;2023-02-04T14:26:26;14.33;;;6.63;;
21046;SDS011;10682;50.874;3.656;2023-02-04T14:28:53;13.00;;;6.30;;
21046;SDS011;10682;50.874;3.656;2023-02-04T14:31:20;13.47;;;6.50;;
21046;SDS011;10682;50.874;3.656;2023-02-04T14:33:48;14.37;;;6.50;;
21046;SDS011;10682;50.874;3.656;2023-02-04T14:36:15;15.27;;;6.30;;
21046;SDS011;10682;50.874;3.656;2023-02-04T14:38:42;11.33;;;5.87;;
21046;SDS011;10682;50.874;3.656;2023-02-04T14:41:09;13.77;;;6.83;;
21046;SDS011;10682;50.874;3.656;2023-02-04T14:43:41;13.40;;;6.10;;
21046;SDS011;10682;50.874;3.656;2023-02-04T14:46:08;13.20;;;6.97;;
21046;SDS011;10682;50.874;3.656;2023-02-04T14:48:35;13.53;;;5.60;;
21046;SDS011;10682;50.874;3.656;2023-02-04T14:51:02;15.63;;;6.27;;
21046;SDS011;10682;50.874;3.656;2023-02-04T14:53:29;15.07;;;5.83;;
21046;SDS011;10682;50.874;3.656;2023-02-04T14:55:56;17.07;;;6.23;;
21046;SDS011;10682;50.874;3.656;2023-02-04T14:58:23;14.53;;;6.47;;
21046;SDS011;10682;50.874;3.656;2023-02-04T15:00:53;16.70;;;6.80;;
21046;SDS011;10682;50.874;3.656;2023-02-04T15:03:20;14.90;;;6.40;;
21046;SDS011;10682;50.874;3.656;2023-02-04T15:05:47;14.33;;;6.80;;
21046;SDS011;10682;50.874;3.656;2023-02-04T15:08:14;16.50;;;7.50;;
21046;SDS011;10682;50.874;3.656;2023-02-04T15:10:41;15.50;;;6.93;;
21046;SDS011;10682;50.874;3.656;2023-02-04T15:13:08;16.37;;;6.33;;
21046;SDS011;10682;50.874;3.656;2023-02-04T15:15:36;14.03;;;6.23;;
21046;SDS011;10682;50.874;3.656;2023-02-04T15:18:03;14.17;;;6.87;;